• Join FlightAware (Why Join?)
  • Login
  • US Flag 
07:12PM EDT


 

Airport Tracker/Info


-or-


 

Live Flight TrackerFlight Track Log ✈ UAL6148 ✈ 24-Feb-2013 ✈ KSFO - KSNA

Flight Track Log - Related Links

Times and Time Zones

All times are in EST time to prevent confusion due to time zone crossing. See the UAL6148 flight status page for this flight to view local times or setup timezone preferences in your user account.

Time Position Orientation Groundspeed Altitude Reporting Facility
EST Latitude Longitude Course Direction KTS MPH feet Rate Location/Type
02:49PM 37.6333 -122.3667 185° South 150 173 1,300  Level Northern Cal TRACON
02:50PM 37.6833 -122.3667 360° North 201 231 4,800 2,880 Climbing Northern Cal TRACON
02:51PM 37.6925 -122.3611 26° Northeast 203 234 4,900 3,180 Climbing Oakland Center
02:52PM 37.7203 -122.4250 299° West 264 304 8,900 4,260 Climbing Oakland Center
02:53PM 37.6242 -122.4756 203° Southwest 330 380 13,700 4,200 Climbing Oakland Center
02:54PM 37.5231 -122.4917 187° South 355 409 17,600 3,360 Climbing Oakland Center
02:55PM 37.2297 -122.5287 185° South  Level FlightAware Approximate
02:55PM 37.4181 -122.5072 187° South 372 428 20,700  Level Oakland Center
02:56PM 37.3047 -122.5225 186° South 419 482 23,700 2,880 Climbing Oakland Center
02:57PM 37.1875 -122.5392 186° South 423 487 26,700 2,820 Climbing Oakland Center
02:58PM 37.0714 -122.5558 187° South 422 486 29,500 2,040 Climbing Oakland Center
02:59PM 36.9519 -122.5683 185° South 432 497 31,000 660 Climbing Oakland Center
03:00PM 36.8228 -122.5381 169° South 472 543 30,900  Descending Oakland Center
03:01PM 36.6922 -122.5042 168° South 478 550 31,000  Climbing Oakland Center
03:02PM 36.5375 -122.4622 168° South 475 547 31,000  Level Oakland Center
03:03PM 36.4114 -122.4106 162° South 481 554 31,000  Level Oakland Center
03:04PM 36.3228 -122.2906 132° Southeast 477 549 31,000 -60 Level Oakland Center
03:05PM 36.2372 -122.1672 131° Southeast 474 545 30,900  Descending Oakland Center
03:06PM 36.1511 -122.0422 130° Southeast 477 549 31,000  Climbing Oakland Center
03:07PM 36.0658 -121.9178 130° Southeast 477 549 31,000  Level Oakland Center
03:08PM 35.9808 -121.7958 131° Southeast 476 548 31,000  Level Oakland Center
03:09PM 35.8781 -121.6475 131° Southeast 475 547 31,000  Level Oakland Center
03:10PM 35.7914 -121.5250 131° Southeast 476 548 31,000  Level Oakland Center
03:11PM 35.7058 -121.4011 130° Southeast 475 547 31,000  Level Oakland Center
03:12PM 35.6203 -121.2789 131° Southeast 474 545 31,000  Level Oakland Center
03:13PM 35.5328 -121.1558 131° Southeast 478 550 31,000  Level Oakland Center
03:14PM 35.4264 -121.0453 140° Southeast 502 578 31,000 -60 Level Oakland Center
03:15PM 35.3097 -120.9542 147° Southeast 502 578 30,900 -120 Descending Oakland Center
03:15PM 35.2658 -120.9217 149° Southeast 503 579 30,900 60 Level Los Angeles Center
03:16PM 35.1500 -120.8292 147° Southeast 489 563 31,000  Climbing Los Angeles Center
03:17PM 35.0369 -120.7450 149° Southeast 486 559 31,000 -60 Level Los Angeles Center
03:19PM 34.9239 -120.6558 147° Southeast 484 557 30,900  Descending Los Angeles Center
03:20PM 34.7900 -120.5508 147° Southeast 481 554 31,000  Climbing Los Angeles Center
03:21PM 34.6775 -120.4625 147° Southeast 483 556 30,900 -540 Descending Los Angeles Center
03:22PM 34.5642 -120.3772 148° Southeast 482 555 29,900 -960 Descending Los Angeles Center
03:23PM 34.4511 -120.2917 148° Southeast 481 554 29,000 -960 Descending Los Angeles Center
03:24PM 34.3247 -120.1958 148° Southeast 475 547 27,900 -1,020 Descending Los Angeles Center
03:25PM 34.2283 -120.0942 139° Southeast 468 539 26,900 -1,020 Descending Los Angeles Center
03:26PM 34.1650 -119.9658 121° Southeast 453 521 25,900 -1,020 Descending Los Angeles Center
03:27PM 34.1025 -119.8411 121° Southeast 438 504 24,900 -1,080 Descending Los Angeles Center
03:28PM 34.0275 -119.6928 121° Southeast 433 498 23,700 -1,080 Descending Los Angeles Center
03:29PM 33.9669 -119.5714 121° Southeast 425 489 22,700 -1,020 Descending Los Angeles Center
03:30PM 33.9058 -119.4517 122° Southeast 422 486 21,700 -1,140 Descending Los Angeles Center
03:31PM 33.8467 -119.3342 121° Southeast 414 476 20,400 -1,620 Descending Los Angeles Center
03:32PM 33.7914 -119.2233 121° Southeast 388 447 18,400 -1,920 Descending Los Angeles Center
03:33PM 33.7347 -119.1128 122° Southeast 386 444 16,400 -2,220 Descending Los Angeles Center
03:34PM 33.6683 -118.9842 122° Southeast 379 436 13,800 -2,340 Descending Los Angeles Center
03:35PM 33.6133 -118.8797 122° Southeast 374 430 11,600 -1,500 Descending Los Angeles Center
03:36PM 33.5619 -118.7775 121° Southeast 361 415 10,800 -780 Descending Los Angeles Center
03:37PM 33.5319 -118.6706 109° East 343 395 10,000 -1,200 Descending Los Angeles Center
03:38PM 33.5028 -118.5742 110° East 319 367 8,400 -1,740 Descending Los Angeles Center
03:39PM 33.4758 -118.4683 107° East 286 329 6,500 -1,680 Descending Los Angeles Center
03:40PM 33.4569 -118.3850 105° East 268 308 5,000 -720 Descending Los Angeles Center
03:41PM 33.4406 -118.3008 103° East 263 303 5,000 -420 Level Los Angeles Center
03:42PM 33.4225 -118.2192 105° East 258 297 4,200 -1,020 Descending Los Angeles Center
03:43PM 33.4014 -118.1389 107° East 255 293 3,000 -1,020 Descending Los Angeles Center
03:44PM 33.4239 -118.0550 72° East 240 276 2,100 -540 Descending Los Angeles Center
03:45PM 33.4619 -117.9986 51° Northeast 226 260 2,000 -60 Descending Los Angeles Center
03:46PM 33.5183 -117.9661 26° Northeast 226 260 2,000 -120 Level Los Angeles Center
03:47PM 33.5669 -117.9369 27° Northeast 210 242 1,800 -360 Descending Los Angeles Center
03:49PM 33.6111 -117.9092 28° Northeast 162 186 1,300 -660 Descending Los Angeles Center
03:49PM 33.6333 -117.8833 44° Northeast 129 148 600 -600 Descending Southern California TRACON
03:50PM 33.6667 -117.8667 23° Northeast 121 139 200 -420 Descending Southern California TRACON
03:53PM 33.6757 -117.8682 23° Northeast  Level Estimated
04:00PM 33.6757 -117.8682 23° Northeast  Level Estimated